createdAt,value
2023-11-09T00:00:24.410Z,1.70
2023-11-09T00:02:55.979Z,1.83
2023-11-09T00:05:28.315Z,2.00
2023-11-09T00:07:58.038Z,1.70
2023-11-09T00:10:27.769Z,2.20
2023-11-09T00:13:00.075Z,1.80
2023-11-09T00:15:31.493Z,1.70
2023-11-09T00:18:04.638Z,1.60
2023-11-09T00:20:37.569Z,2.03
2023-11-09T00:23:07.278Z,1.83
2023-11-09T00:25:37.239Z,1.67
2023-11-09T00:28:08.476Z,2.20
2023-11-09T00:30:38.063Z,2.23
2023-11-09T00:33:07.767Z,1.57
2023-11-09T00:35:40.692Z,1.83
2023-11-09T00:38:12.025Z,1.73
2023-11-09T00:40:41.677Z,1.97
2023-11-09T00:43:11.525Z,2.03
2023-11-09T00:45:41.129Z,2.40
2023-11-09T00:48:11.097Z,1.70
2023-11-09T00:50:43.424Z,1.43
2023-11-09T00:53:13.178Z,1.88
2023-11-09T00:55:42.777Z,1.77
2023-11-09T00:58:12.604Z,1.60
2023-11-09T01:00:42.187Z,1.93
2023-11-09T01:03:11.928Z,1.50
2023-11-09T01:05:44.523Z,2.37
2023-11-09T01:08:14.337Z,1.80
2023-11-09T01:10:44.722Z,2.03
2023-11-09T01:13:14.373Z,1.90
2023-11-09T01:15:43.962Z,1.43
2023-11-09T01:18:13.558Z,1.73
2023-11-09T01:20:45.974Z,1.70
2023-11-09T01:23:15.567Z,1.80
2023-11-09T01:25:45.704Z,1.70
2023-11-09T01:28:15.454Z,1.80
2023-11-09T01:30:45.777Z,1.50
2023-11-09T01:33:15.520Z,1.80
2023-11-09T01:35:47.804Z,1.60
2023-11-09T01:38:17.701Z,1.63
2023-11-09T01:40:54.640Z,1.50
2023-11-09T01:43:26.396Z,1.67
2023-11-09T01:45:56.146Z,1.53
2023-11-09T01:48:26.994Z,1.90
2023-11-09T01:50:59.305Z,1.73
2023-11-09T01:53:29.199Z,1.95
2023-11-09T01:55:58.936Z,2.07
2023-11-09T01:58:29.182Z,1.67
2023-11-09T02:01:02.570Z,1.70
2023-11-09T02:03:33.166Z,1.73
2023-11-09T02:06:05.493Z,1.80
2023-11-09T02:08:36.227Z,1.58
2023-11-09T02:11:06.797Z,1.80
2023-11-09T02:13:37.269Z,1.73
2023-11-09T02:16:10.687Z,2.10
2023-11-09T02:18:40.378Z,1.80
2023-11-09T02:21:16.300Z,1.40
2023-11-09T02:23:47.464Z,1.67
2023-11-09T02:26:20.598Z,1.60
2023-11-09T02:28:52.031Z,1.30
2023-11-09T02:31:22.900Z,1.75
2023-11-09T02:33:52.625Z,1.80
2023-11-09T02:36:22.415Z,1.73
2023-11-09T02:38:52.292Z,1.80
2023-11-09T02:41:24.691Z,1.67
2023-11-09T02:43:54.330Z,1.50
2023-11-09T02:46:24.132Z,1.60
2023-11-09T02:48:54.215Z,1.80
2023-11-09T02:51:23.947Z,1.70
2023-11-09T02:53:54.773Z,1.67
2023-11-09T02:56:27.094Z,1.33
2023-11-09T02:58:56.813Z,1.40
2023-11-09T03:01:26.698Z,1.33
2023-11-09T03:03:56.432Z,1.57
2023-11-09T03:06:26.489Z,1.60
2023-11-09T03:08:56.032Z,1.67
2023-11-09T03:11:28.264Z,1.57
2023-11-09T03:13:57.845Z,1.30
2023-11-09T03:16:27.512Z,1.63
2023-11-09T03:18:57.138Z,1.40
2023-11-09T03:21:26.728Z,1.47
2023-11-09T03:23:56.684Z,1.40
2023-11-09T03:26:29.412Z,1.43
2023-11-09T03:28:59.215Z,1.83
2023-11-09T03:31:29.303Z,1.20
2023-11-09T03:33:59.313Z,1.30
2023-11-09T03:36:28.956Z,1.90
2023-11-09T03:38:58.674Z,1.30
2023-11-09T03:41:31.368Z,1.27
2023-11-09T03:44:01.224Z,1.75
2023-11-09T03:46:30.832Z,1.83
2023-11-09T03:49:00.533Z,1.50
2023-11-09T03:51:31.000Z,2.13
2023-11-09T03:54:00.572Z,1.70
2023-11-09T03:56:33.050Z,1.50
2023-11-09T03:59:02.628Z,1.67
2023-11-09T04:01:32.505Z,1.60
2023-11-09T04:04:03.374Z,1.50
2023-11-09T04:06:33.061Z,1.70
2023-11-09T04:09:06.677Z,1.50
2023-11-09T04:11:40.165Z,1.70
2023-11-09T04:14:09.751Z,1.37
2023-11-09T04:16:39.319Z,1.60
2023-11-09T04:19:09.468Z,1.47
2023-11-09T04:21:39.148Z,1.83
2023-11-09T04:24:09.867Z,1.70
2023-11-09T04:26:43.396Z,1.63
2023-11-09T04:29:12.986Z,1.83
2023-11-09T04:31:48.320Z,1.87
2023-11-09T04:34:18.044Z,1.80
2023-11-09T04:36:51.395Z,1.70
2023-11-09T04:39:29.466Z,1.60
2023-11-09T04:42:05.970Z,1.53
2023-11-09T04:44:37.938Z,1.40
2023-11-09T04:47:12.507Z,1.58
2023-11-09T04:49:47.202Z,1.80
2023-11-09T04:52:20.553Z,1.87
2023-11-09T04:55:08.602Z,1.50
2023-11-09T04:57:54.018Z,1.70
2023-11-09T05:00:36.113Z,1.90
2023-11-09T05:03:18.247Z,2.05
2023-11-09T05:06:05.451Z,1.85
2023-11-09T05:08:34.993Z,1.60
2023-11-09T05:11:04.800Z,1.97
2023-11-09T05:13:37.155Z,1.40
2023-11-09T05:16:07.445Z,2.00
2023-11-09T05:18:38.856Z,2.33
2023-11-09T05:21:08.593Z,1.77
2023-11-09T05:23:38.215Z,1.90
2023-11-09T05:26:07.822Z,2.03
2023-11-09T05:28:40.976Z,1.60
2023-11-09T05:31:12.151Z,1.50
2023-11-09T05:33:41.836Z,1.80
2023-11-09T05:36:12.085Z,1.93
2023-11-09T05:38:41.753Z,1.97
2023-11-09T05:41:11.955Z,1.70
2023-11-09T05:43:44.234Z,1.63
2023-11-09T05:46:13.832Z,1.95
2023-11-09T05:48:43.594Z,1.87
2023-11-09T05:51:13.223Z,1.90
2023-11-09T05:53:42.786Z,1.53
2023-11-09T05:56:12.308Z,1.50
2023-11-09T05:58:44.769Z,2.00
2023-11-09T06:01:15.316Z,2.03
2023-11-09T06:03:44.984Z,1.80
2023-11-09T06:06:14.596Z,1.83
2023-11-09T06:08:44.502Z,1.80
2023-11-09T06:11:14.903Z,1.87
2023-11-09T06:13:47.688Z,1.70
2023-11-09T06:18:47.524Z,1.70
2023-11-09T06:21:17.130Z,1.70
2023-11-09T06:23:46.679Z,1.70
2023-11-09T06:26:16.250Z,2.10
2023-11-09T06:28:48.386Z,1.63
2023-11-09T06:31:17.961Z,1.95
2023-11-09T06:33:47.615Z,2.00
2023-11-09T06:36:17.585Z,1.80
2023-11-09T06:38:47.816Z,1.97
2023-11-09T06:41:17.540Z,2.07
2023-11-09T06:43:49.801Z,2.00
2023-11-09T06:46:19.426Z,1.70
2023-11-09T06:48:50.085Z,1.70
2023-11-09T06:51:19.684Z,1.90
2023-11-09T06:53:49.397Z,1.73
2023-11-09T06:56:19.035Z,2.00
2023-11-09T06:58:51.202Z,2.07
2023-11-09T07:01:20.757Z,2.22
2023-11-09T07:03:52.515Z,2.00
2023-11-09T07:06:23.497Z,1.93
2023-11-09T07:08:53.390Z,2.07
2023-11-09T07:11:22.967Z,1.80
2023-11-09T07:13:55.095Z,1.87
2023-11-09T07:16:24.783Z,1.77
2023-11-09T07:18:54.501Z,1.97
2023-11-09T07:21:24.987Z,1.50
2023-11-09T07:24:00.833Z,1.97
2023-11-09T07:26:36.741Z,2.05
2023-11-09T07:29:08.862Z,1.70
2023-11-09T07:31:38.476Z,1.90
2023-11-09T07:34:08.206Z,1.77
2023-11-09T07:36:37.876Z,2.23
2023-11-09T07:39:07.639Z,1.70
2023-11-09T07:41:38.057Z,1.93
2023-11-09T07:44:10.351Z,2.00
2023-11-09T07:46:39.941Z,1.80
2023-11-09T07:49:11.907Z,2.10
2023-11-09T07:51:41.815Z,1.88
2023-11-09T07:54:11.628Z,2.00
2023-11-09T07:56:41.571Z,1.83
2023-11-09T07:59:15.173Z,2.07
2023-11-09T08:01:44.810Z,1.77
2023-11-09T08:04:14.433Z,1.80
2023-11-09T08:06:44.180Z,1.80
2023-11-09T08:09:17.037Z,1.90
2023-11-09T08:11:47.090Z,1.90
2023-11-09T08:14:19.278Z,2.27
2023-11-09T08:17:01.817Z,1.67
2023-11-09T08:19:31.516Z,1.90
2023-11-09T08:22:03.540Z,2.27
2023-11-09T08:24:33.899Z,2.05
2023-11-09T08:27:03.499Z,2.00
2023-11-09T08:29:36.522Z,1.60
2023-11-09T08:32:06.687Z,1.83
2023-11-09T08:34:36.496Z,1.70
2023-11-09T08:37:07.745Z,1.90
2023-11-09T08:39:38.768Z,1.93
2023-11-09T08:42:09.332Z,1.77
2023-11-09T08:44:43.141Z,1.70
2023-11-09T08:47:12.837Z,1.67
2023-11-09T08:49:42.458Z,1.53
2023-11-09T08:52:12.299Z,1.43
2023-11-09T08:54:43.147Z,1.70
2023-11-09T08:57:12.685Z,1.80
2023-11-09T08:59:45.064Z,1.43
2023-11-09T09:02:14.668Z,1.30
2023-11-09T09:04:44.510Z,1.63
2023-11-09T09:07:14.166Z,1.60
2023-11-09T09:09:47.013Z,1.30
2023-11-09T09:12:16.981Z,1.63
2023-11-09T09:14:52.418Z,2.13
2023-11-09T09:17:21.993Z,1.63
2023-11-09T09:19:52.598Z,1.40
2023-11-09T09:22:22.261Z,1.53
2023-11-09T09:24:51.935Z,1.50
2023-11-09T09:27:21.485Z,1.30
2023-11-09T09:29:53.715Z,1.60
2023-11-09T09:32:25.212Z,1.90
2023-11-09T09:34:56.266Z,1.93
2023-11-09T09:37:25.891Z,1.83
2023-11-09T09:39:55.596Z,1.60
2023-11-09T09:42:26.597Z,1.60
2023-11-09T09:45:00.122Z,1.90
2023-11-09T09:47:31.772Z,2.00
2023-11-09T09:50:02.539Z,1.90
2023-11-09T09:52:32.913Z,1.63
2023-11-09T09:55:02.473Z,1.87
2023-11-09T09:57:32.246Z,2.27
2023-11-09T10:00:08.915Z,1.73
2023-11-09T10:02:42.916Z,1.60
2023-11-09T10:05:15.313Z,1.80
2023-11-09T10:08:03.286Z,1.50
2023-11-09T10:10:33.832Z,1.60
2023-11-09T10:13:07.638Z,2.07
2023-11-09T10:15:41.369Z,1.47
2023-11-09T10:18:12.963Z,1.40
2023-11-09T10:20:43.006Z,1.57
2023-11-09T10:23:15.892Z,1.40
2023-11-09T10:25:45.876Z,1.57
2023-11-09T10:28:16.295Z,1.83
2023-11-09T10:30:49.869Z,1.40
2023-11-09T10:33:22.801Z,1.80
2023-11-09T10:35:54.199Z,1.50
2023-11-09T10:38:25.623Z,1.50
2023-11-09T10:41:14.979Z,1.30
2023-11-09T10:43:46.641Z,1.50
2023-11-09T10:46:20.398Z,1.07
2023-11-09T10:48:53.583Z,1.17
2023-11-09T10:51:26.123Z,0.93
2023-11-09T10:54:00.826Z,1.45
2023-11-09T10:56:34.013Z,1.13
2023-11-09T10:59:03.642Z,1.27
2023-11-09T11:01:37.487Z,1.00
2023-11-09T11:04:11.086Z,1.70
2023-11-09T11:06:52.327Z,1.23
2023-11-09T11:09:27.514Z,1.10
2023-11-09T11:12:03.238Z,1.07
2023-11-09T11:14:35.548Z,1.60
2023-11-09T11:17:25.509Z,2.05
2023-11-09T11:20:36.025Z,1.80
2023-11-09T11:23:21.680Z,1.20
2023-11-09T11:25:57.590Z,1.30
2023-11-09T11:28:28.954Z,1.10
2023-11-09T11:31:05.498Z,0.93
2023-11-09T11:33:38.533Z,1.30
2023-11-09T11:36:09.236Z,1.20
2023-11-09T11:38:41.331Z,1.10
2023-11-09T11:41:23.787Z,1.00
2023-11-09T11:43:58.222Z,1.40
2023-11-09T11:46:28.432Z,1.30
2023-11-09T11:49:01.052Z,1.20
2023-11-09T11:51:33.438Z,1.33
2023-11-09T11:54:11.128Z,1.30
2023-11-09T11:56:42.608Z,1.63
2023-11-09T11:59:13.429Z,1.17
2023-11-09T12:01:44.805Z,1.17
2023-11-09T12:04:18.746Z,1.20
2023-11-09T12:06:53.983Z,1.13
2023-11-09T12:09:23.767Z,1.30
2023-11-09T12:11:56.716Z,1.17
2023-11-09T12:14:26.430Z,1.20
2023-11-09T12:16:56.205Z,1.90
2023-11-09T12:19:28.437Z,1.17
2023-11-09T12:21:58.124Z,1.20
2023-11-09T12:24:29.709Z,1.10
2023-11-09T12:27:09.000Z,1.10
2023-11-09T12:29:40.025Z,1.10
2023-11-09T12:32:11.213Z,1.20
2023-11-09T12:34:45.089Z,1.30
2023-11-09T12:37:18.092Z,1.20
2023-11-09T12:39:49.789Z,1.20
2023-11-09T12:42:26.414Z,1.17
2023-11-09T12:44:57.872Z,1.00
2023-11-09T12:47:27.938Z,1.60
2023-11-09T12:50:06.089Z,1.13
2023-11-09T12:52:36.720Z,1.10
2023-11-09T12:55:08.553Z,1.40
2023-11-09T12:57:43.299Z,1.10
2023-11-09T13:00:22.006Z,1.40
2023-11-09T13:02:58.224Z,1.13
2023-11-09T13:05:34.022Z,1.13
2023-11-09T13:08:10.988Z,1.00
2023-11-09T13:10:45.086Z,1.40
2023-11-09T13:13:26.261Z,1.13
2023-11-09T13:15:58.216Z,1.10
2023-11-09T13:18:30.412Z,1.30
2023-11-09T13:21:02.729Z,1.45
2023-11-09T13:23:40.451Z,1.02
2023-11-09T13:26:10.275Z,1.10
2023-11-09T13:28:41.850Z,1.30
2023-11-09T13:31:20.496Z,1.20
2023-11-09T13:33:50.591Z,1.10
2023-11-09T13:36:39.047Z,1.03
2023-11-09T13:39:32.987Z,1.10
2023-11-09T13:42:12.258Z,0.90
2023-11-09T13:44:43.577Z,1.20
2023-11-09T13:47:14.401Z,1.00
2023-11-09T13:49:44.091Z,1.30
2023-11-09T13:52:32.735Z,1.43
2023-11-09T13:55:14.613Z,1.17
2023-11-09T13:57:43.994Z,1.20
2023-11-09T14:00:32.946Z,1.00
2023-11-09T14:03:02.744Z,1.10
2023-11-09T14:05:32.417Z,1.10
2023-11-09T14:08:16.535Z,1.20
2023-11-09T14:10:49.668Z,1.20
2023-11-09T14:13:29.884Z,1.23
2023-11-09T14:16:13.068Z,1.20
2023-11-09T14:21:24.982Z,1.00
2023-11-09T14:23:58.287Z,1.23
2023-11-09T14:26:28.784Z,1.00
2023-11-09T14:29:02.706Z,0.90
2023-11-09T14:31:37.985Z,0.80
2023-11-09T14:34:11.941Z,1.60
2023-11-09T14:36:43.592Z,1.10
2023-11-09T14:39:32.604Z,1.30
2023-11-09T14:42:07.337Z,1.23
2023-11-09T14:44:38.078Z,1.20
2023-11-09T14:47:11.989Z,0.97
2023-11-09T14:49:50.590Z,1.20
2023-11-09T14:52:22.305Z,0.83
2023-11-09T14:54:58.684Z,1.00
2023-11-09T14:57:29.439Z,1.00
2023-11-09T14:59:59.074Z,1.10
2023-11-09T15:02:29.248Z,1.00
2023-11-09T15:04:59.114Z,1.23
2023-11-09T15:07:28.713Z,1.13
2023-11-09T15:10:01.618Z,1.00
2023-11-09T15:12:36.144Z,1.47
2023-11-09T15:15:09.464Z,1.17
2023-11-09T15:17:39.463Z,1.10
2023-11-09T15:20:16.938Z,1.27
2023-11-09T15:22:47.641Z,1.27
2023-11-09T15:25:19.914Z,1.33
2023-11-09T15:27:50.345Z,0.95
2023-11-09T15:30:24.763Z,1.20
2023-11-09T15:32:55.291Z,1.20
2023-11-09T15:35:27.452Z,0.90
2023-11-09T15:38:01.307Z,1.13
2023-11-09T15:41:10.825Z,1.67
2023-11-09T15:43:24.060Z,1.20
2023-11-09T15:45:56.700Z,1.40
2023-11-09T15:48:28.140Z,1.10
2023-11-09T15:50:57.706Z,1.20
2023-11-09T15:53:27.492Z,1.10
2023-11-09T15:55:59.753Z,1.00
2023-11-09T15:58:29.453Z,1.35
2023-11-09T16:01:02.433Z,1.40
2023-11-09T16:03:34.946Z,1.23
2023-11-09T16:06:04.568Z,1.20
2023-11-09T16:08:34.155Z,1.10
2023-11-09T16:11:08.752Z,1.30
2023-11-09T16:13:38.495Z,2.17
2023-11-09T16:16:08.253Z,1.90
2023-11-09T16:18:39.447Z,1.70
2023-11-09T16:21:09.722Z,1.50
2023-11-09T16:23:40.074Z,1.20
2023-11-09T16:26:12.729Z,1.10
2023-11-09T16:28:47.243Z,1.27
2023-11-09T16:31:17.807Z,1.40
2023-11-09T16:33:48.456Z,1.20
2023-11-09T16:36:18.328Z,1.30
2023-11-09T16:38:48.704Z,1.67
2023-11-09T16:41:21.932Z,1.50
2023-11-09T16:43:51.524Z,2.10
2023-11-09T16:46:24.874Z,1.80
2023-11-09T16:48:55.560Z,1.20
2023-11-09T16:51:25.156Z,1.30
2023-11-09T16:53:54.748Z,1.10
2023-11-09T16:56:27.427Z,1.47
2023-11-09T16:58:57.020Z,2.03
2023-11-09T17:01:26.624Z,1.50
2023-11-09T17:03:56.265Z,1.57
2023-11-09T17:06:26.681Z,1.40
2023-11-09T17:08:56.243Z,1.50
2023-11-09T17:11:29.668Z,1.53
2023-11-09T17:13:59.375Z,2.37
2023-11-09T17:16:29.121Z,1.50
2023-11-09T17:19:00.722Z,1.23
2023-11-09T17:21:30.288Z,2.07
2023-11-09T17:23:59.839Z,1.57
2023-11-09T17:26:32.314Z,1.57
2023-11-09T17:29:02.777Z,1.77
2023-11-09T17:31:32.379Z,1.90
2023-11-09T17:34:01.977Z,1.50
2023-11-09T17:36:28.965Z,1.73
2023-11-09T17:38:58.524Z,1.37
2023-11-09T17:41:28.115Z,1.67
2023-11-09T17:44:02.233Z,1.73
2023-11-09T17:46:31.888Z,1.83
2023-11-09T17:49:02.363Z,1.80
2023-11-09T17:51:32.412Z,1.60
2023-11-09T17:54:05.581Z,1.87
2023-11-09T17:56:35.200Z,1.70
2023-11-09T17:59:07.458Z,1.80
2023-11-09T18:01:37.407Z,1.67
2023-11-09T18:04:08.032Z,1.70
2023-11-09T18:06:38.865Z,1.40
2023-11-09T18:09:08.935Z,1.80
2023-11-09T18:11:44.027Z,2.87
2023-11-09T18:14:17.333Z,3.47
2023-11-09T18:16:50.456Z,2.08
2023-11-09T18:19:20.202Z,3.37
2023-11-09T18:21:50.575Z,2.30
2023-11-09T18:24:21.213Z,2.50
2023-11-09T18:26:50.769Z,2.10
2023-11-09T18:29:24.397Z,2.77
2023-11-09T18:31:54.071Z,2.80
2023-11-09T18:34:23.839Z,2.57
2023-11-09T18:36:53.791Z,1.87
2023-11-09T18:39:23.344Z,3.00
2023-11-09T18:41:53.150Z,2.50
2023-11-09T18:44:25.309Z,2.20
2023-11-09T18:46:54.956Z,2.20
2023-11-09T18:51:57.086Z,2.22
2023-11-09T18:54:26.704Z,2.67
2023-11-09T18:56:56.415Z,2.23
2023-11-09T18:59:28.571Z,2.03
2023-11-09T19:01:58.156Z,2.08
2023-11-09T19:07:00.390Z,2.10
2023-11-09T19:09:30.737Z,2.63
2023-11-09T19:12:00.289Z,2.57
2023-11-09T19:14:32.502Z,2.00
2023-11-09T19:17:05.681Z,1.83
2023-11-09T19:19:37.129Z,2.30
2023-11-09T19:24:40.606Z,1.90
2023-11-09T19:27:12.877Z,1.73
2023-11-09T19:29:45.177Z,2.80
2023-11-09T19:32:16.269Z,1.60
2023-11-09T19:34:45.886Z,1.70
2023-11-09T19:37:15.454Z,1.63
2023-11-09T19:39:46.462Z,2.70
2023-11-09T19:42:16.303Z,2.43
2023-11-09T19:44:48.893Z,1.70
2023-11-09T19:47:18.815Z,2.13
2023-11-09T19:49:48.455Z,1.83
2023-11-09T19:52:18.036Z,2.20
2023-11-09T19:54:47.673Z,1.90
2023-11-09T19:57:17.267Z,2.50
2023-11-09T19:59:49.390Z,1.87
2023-11-09T20:02:21.483Z,1.92
2023-11-09T20:04:53.049Z,1.80
2023-11-09T20:07:22.687Z,2.87
2023-11-09T20:09:52.255Z,2.17
2023-11-09T20:12:22.434Z,2.10
2023-11-09T20:14:54.608Z,2.10
2023-11-09T20:17:27.309Z,2.05
2023-11-09T20:22:26.270Z,2.30
2023-11-09T20:24:55.858Z,2.50
2023-11-09T20:27:25.569Z,2.67
2023-11-09T20:29:57.742Z,2.17
2023-11-09T20:32:29.517Z,1.92
2023-11-09T20:34:59.653Z,1.90
2023-11-09T20:37:29.384Z,2.00
2023-11-09T20:39:58.935Z,2.03
2023-11-09T20:42:29.390Z,1.77
2023-11-09T20:45:13.221Z,1.33
2023-11-09T20:47:43.095Z,1.80
2023-11-09T20:50:16.331Z,1.80
2023-11-09T20:52:51.224Z,1.70
2023-11-09T20:55:23.125Z,1.90
2023-11-09T20:57:54.152Z,2.40
2023-11-09T21:00:30.080Z,2.03
2023-11-09T21:02:59.884Z,2.00
2023-11-09T21:05:29.798Z,1.60
2023-11-09T21:08:00.324Z,1.90
2023-11-09T21:10:30.750Z,1.90
2023-11-09T21:13:00.437Z,1.90
2023-11-09T21:15:33.299Z,2.23
2023-11-09T21:18:03.037Z,2.60
2023-11-09T21:20:33.143Z,2.63
2023-11-09T21:23:03.950Z,2.90
2023-11-09T21:25:34.362Z,2.40
2023-11-09T21:28:04.099Z,2.10
2023-11-09T21:30:36.412Z,2.10
2023-11-09T21:33:06.293Z,2.17
2023-11-09T21:35:36.697Z,2.07
2023-11-09T21:38:06.296Z,1.80
2023-11-09T21:40:35.880Z,2.60
2023-11-09T21:43:05.440Z,1.70
2023-11-09T21:45:37.691Z,1.67
2023-11-09T21:48:07.771Z,5.15
2023-11-09T21:50:37.370Z,2.20
2023-11-09T21:53:14.621Z,3.27
2023-11-09T21:55:44.352Z,1.93
2023-11-09T21:58:13.923Z,2.67
2023-11-09T22:00:46.507Z,1.47
2023-11-09T22:03:17.182Z,2.00
2023-11-09T22:05:46.911Z,1.80
2023-11-09T22:08:16.481Z,2.17
2023-11-09T22:10:46.269Z,1.73
2023-11-09T22:13:16.060Z,1.67
2023-11-09T22:15:48.292Z,2.00
2023-11-09T22:18:18.024Z,1.38
2023-11-09T22:20:47.581Z,1.70
2023-11-09T22:23:17.142Z,1.47
2023-11-09T22:25:46.747Z,2.17
2023-11-09T22:28:16.327Z,1.40
2023-11-09T22:30:48.469Z,1.20
2023-11-09T22:33:19.379Z,1.80
2023-11-09T22:35:49.433Z,1.30
2023-11-09T22:38:19.037Z,1.60
2023-11-09T22:40:48.635Z,1.47
2023-11-09T22:43:19.124Z,1.43
2023-11-09T22:45:51.550Z,2.87
2023-11-09T22:48:21.533Z,1.92
2023-11-09T22:50:52.110Z,1.67
2023-11-09T22:53:21.785Z,2.07
2023-11-09T22:55:51.370Z,1.63
2023-11-09T22:58:20.933Z,1.40
2023-11-09T23:00:55.376Z,1.53
2023-11-09T23:03:25.108Z,1.27
2023-11-09T23:05:56.410Z,1.13
2023-11-09T23:08:26.452Z,1.20
2023-11-09T23:10:56.040Z,1.33
2023-11-09T23:13:25.658Z,1.10
2023-11-09T23:15:58.053Z,1.33
2023-11-09T23:18:29.644Z,1.23
2023-11-09T23:20:59.235Z,1.10
2023-11-09T23:23:28.939Z,0.80
2023-11-09T23:25:58.487Z,0.83
2023-11-09T23:28:28.238Z,0.77
2023-11-09T23:31:00.552Z,0.77
2023-11-09T23:33:35.850Z,1.20
2023-11-09T23:36:05.511Z,0.75
2023-11-09T23:38:35.062Z,0.70
2023-11-09T23:41:04.622Z,1.00
2023-11-09T23:43:34.269Z,0.80
2023-11-09T23:46:07.916Z,0.90
2023-11-09T23:48:37.924Z,0.90
2023-11-09T23:51:07.857Z,1.00
2023-11-09T23:53:38.851Z,1.00
2023-11-09T23:56:09.880Z,0.60
2023-11-09T23:58:39.417Z,0.60
